Time;durP1;ratioP1;P1;durP2;ratioP2;P2;SDS_P1;SDS_P2;PMS_P1;PMS_P2;Temp;Humidity;BMP_temperature;BMP_pressure;BME280_temperature;BME280_humidity;BME280_pressure;Samples;Min_cycle;Max_cycle;Signal;HPM_P1;HPM_P2
2021/10/08 00:00:28;;;;;;;1.75;0.98;;;10.30;93.20;;;;;;5023244;28;20064;-78
2021/10/08 00:02:55;;;;;;;2.08;1.30;;;10.20;93.10;;;;;;5037204;28;20034;-78
2021/10/08 00:05:22;;;;;;;2.05;0.90;;;10.20;93.10;;;;;;5015602;28;20041;-79
2021/10/08 00:07:47;;;;;;;2.35;1.23;;;10.20;93.10;;;;;;5037504;28;20049;-81
2021/10/08 00:10:16;;;;;;;2.38;1.27;;;10.20;93.10;;;;;;4998193;28;20049;-81
2021/10/08 00:12:41;;;;;;;2.08;1.15;;;10.10;93.10;;;;;;5036933;28;20045;-77
2021/10/08 00:15:08;;;;;;;3.70;1.73;;;10.00;93.10;;;;;;5053222;28;20072;-77
2021/10/08 00:17:38;;;;;;;2.15;1.25;;;10.10;93.10;;;;;;5039040;28;20045;-82
2021/10/08 00:20:07;;;;;;;3.38;1.65;;;10.10;93.10;;;;;;5037148;28;20042;-82
2021/10/08 00:22:33;;;;;;;1.92;1.20;;;10.20;93.20;;;;;;4997885;28;20504;-79
2021/10/08 00:24:59;;;;;;;1.70;1.05;;;10.10;93.10;;;;;;5011114;28;20072;-80
2021/10/08 00:27:24;;;;;;;1.60;1.05;;;10.10;93.10;;;;;;5010375;28;20053;-80
2021/10/08 00:29:50;;;;;;;1.70;1.05;;;10.10;93.10;;;;;;5011327;28;20061;-80
2021/10/08 00:32:16;;;;;;;2.30;1.30;;;10.00;93.10;;;;;;5010891;28;20439;-80
2021/10/08 00:34:41;;;;;;;2.25;1.20;;;10.00;93.10;;;;;;5010980;28;20551;-80
2021/10/08 00:37:14;;;;;;;2.05;1.17;;;10.10;93.10;;;;;;4994343;28;20048;-81
2021/10/08 00:39:40;;;;;;;2.88;1.50;;;10.00;93.20;;;;;;4974763;28;20558;-80
2021/10/08 00:42:05;;;;;;;1.65;1.02;;;10.00;93.10;;;;;;4990977;28;20125;-81
2021/10/08 00:44:32;;;;;;;4.13;1.50;;;10.00;93.10;;;;;;4991186;28;20501;-80
2021/10/08 00:46:58;;;;;;;2.22;1.13;;;9.90;93.10;;;;;;4991498;28;20078;-80
2021/10/08 00:49:24;;;;;;;3.00;1.45;;;9.90;93.10;;;;;;4991077;28;20441;-80
2021/10/08 00:51:50;;;;;;;2.75;1.23;;;9.90;93.10;;;;;;4991097;28;20173;-81
2021/10/08 00:54:15;;;;;;;2.58;1.40;;;9.90;93.10;;;;;;4990878;28;20120;-81
2021/10/08 00:56:41;;;;;;;2.58;1.50;;;9.80;93.10;;;;;;4974844;28;20523;-80
2021/10/08 00:59:07;;;;;;;1.95;1.15;;;9.80;93.20;;;;;;4975045;28;20053;-80
2021/10/08 01:01:33;;;;;;;2.72;1.50;;;9.80;93.20;;;;;;4975414;28;20049;-80
2021/10/08 01:03:59;;;;;;;1.77;1.15;;;9.80;93.20;;;;;;4972147;28;20433;-80
2021/10/08 01:06:25;;;;;;;4.65;1.58;;;9.90;93.20;;;;;;4955264;28;20130;-80
2021/10/08 01:08:51;;;;;;;2.40;1.30;;;9.80;93.10;;;;;;4955405;28;20034;-80
2021/10/08 01:11:20;;;;;;;1.88;1.05;;;9.80;93.10;;;;;;4986735;28;20042;-80
2021/10/08 01:13:47;;;;;;;1.42;0.93;;;9.80;93.10;;;;;;4990788;28;20031;-80
2021/10/08 01:16:14;;;;;;;2.05;1.20;;;9.80;93.10;;;;;;4991128;28;20050;-80
2021/10/08 01:18:39;;;;;;;2.80;1.30;;;9.80;93.10;;;;;;4974328;28;20030;-80
2021/10/08 01:21:05;;;;;;;2.25;1.38;;;9.80;93.10;;;;;;4990732;28;20050;-80
2021/10/08 01:23:31;;;;;;;1.63;1.00;;;9.80;93.10;;;;;;4991120;28;20129;-81
2021/10/08 01:25:59;;;;;;;2.53;1.30;;;9.70;93.10;;;;;;4990663;28;20042;-81
2021/10/08 01:28:24;;;;;;;2.88;1.40;;;9.80;93.10;;;;;;4974234;28;20046;-80
2021/10/08 01:30:50;;;;;;;3.00;1.40;;;9.70;93.10;;;;;;4990772;28;20159;-80
2021/10/08 01:33:16;;;;;;;2.38;1.30;;;9.80;93.20;;;;;;4990817;28;20053;-80
2021/10/08 01:35:42;;;;;;;1.35;0.98;;;9.70;93.10;;;;;;5022785;28;20057;-80
2021/10/08 01:38:08;;;;;;;2.20;1.25;;;9.70;93.10;;;;;;5013241;28;20046;-81
2021/10/08 01:40:34;;;;;;;2.00;1.10;;;9.70;93.10;;;;;;5013498;28;20399;-80
2021/10/08 01:43:00;;;;;;;1.98;1.00;;;9.70;93.10;;;;;;4997323;28;20042;-80
2021/10/08 01:45:29;;;;;;;2.08;1.25;;;9.80;93.10;;;;;;4997329;28;20407;-81
2021/10/08 01:47:58;;;;;;;2.15;1.20;;;9.70;93.10;;;;;;4964992;28;20547;-81
2021/10/08 01:50:25;;;;;;;1.55;1.02;;;9.70;93.10;;;;;;4981463;28;20038;-81
2021/10/08 01:52:54;;;;;;;3.15;1.35;;;9.70;93.10;;;;;;4997255;28;20046;-81
2021/10/08 01:55:23;;;;;;;2.10;1.30;;;9.70;93.10;;;;;;4965295;28;20105;-81
2021/10/08 01:57:49;;;;;;;2.15;1.20;;;9.80;93.20;;;;;;4965293;28;20129;-80
2021/10/08 02:00:15;;;;;;;2.15;1.23;;;9.70;93.10;;;;;;4996883;28;20579;-79
2021/10/08 02:02:41;;;;;;;2.40;1.10;;;9.60;93.10;;;;;;4997122;28;20074;-79
2021/10/08 02:05:07;;;;;;;1.17;0.90;;;9.60;93.10;;;;;;4996891;28;20069;-79
2021/10/08 02:07:32;;;;;;;2.40;1.23;;;9.60;93.10;;;;;;4996739;28;20103;-79
2021/10/08 02:09:58;;;;;;;3.25;1.15;;;9.60;93.10;;;;;;4980737;28;20046;-79
2021/10/08 02:12:24;;;;;;;2.63;1.48;;;9.60;93.10;;;;;;5032471;28;20037;-79
2021/10/08 02:14:50;;;;;;;2.13;1.13;;;9.50;93.10;;;;;;5017284;28;20045;-79
2021/10/08 02:17:16;;;;;;;1.90;1.15;;;9.60;93.20;;;;;;5017319;28;20427;-79
2021/10/08 02:19:42;;;;;;;3.33;1.25;;;9.60;93.20;;;;;;5015538;28;20045;-78
2021/10/08 02:22:08;;;;;;;2.55;1.33;;;9.50;93.10;;;;;;5033594;28;20052;-79
2021/10/08 02:24:34;;;;;;;2.25;1.20;;;9.40;93.10;;;;;;5016967;28;20038;-79
2021/10/08 02:27:05;;;;;;;3.75;1.52;;;9.50;93.10;;;;;;5016924;28;20048;-79
2021/10/08 02:29:31;;;;;;;1.90;0.90;;;9.50;93.10;;;;;;5015683;28;20042;-79
2021/10/08 02:31:56;;;;;;;2.58;1.35;;;9.50;93.10;;;;;;5035136;28;20060;-79
2021/10/08 02:34:22;;;;;;;2.58;1.50;;;9.50;93.10;;;;;;5033144;28;20041;-79
2021/10/08 02:36:48;;;;;;;2.60;1.30;;;9.50;93.10;;;;;;5034947;28;20033;-79
2021/10/08 02:39:14;;;;;;;1.92;1.20;;;9.50;93.10;;;;;;5015458;28;20417;-79
2021/10/08 02:41:40;;;;;;;2.53;1.20;;;9.50;93.10;;;;;;5000606;28;20046;-79
2021/10/08 02:44:06;;;;;;;2.05;1.10;;;9.50;93.10;;;;;;5016732;28;20037;-79
2021/10/08 02:46:32;;;;;;;2.22;1.38;;;9.40;93.10;;;;;;5017583;28;20038;-79
2021/10/08 02:48:57;;;;;;;1.10;0.80;;;9.50;93.10;;;;;;5030903;28;20048;-79
2021/10/08 02:51:23;;;;;;;1.70;1.10;;;9.50;93.10;;;;;;5033127;28;20046;-79
2021/10/08 02:53:49;;;;;;;1.48;0.93;;;9.50;93.10;;;;;;5034356;28;20080;-79
2021/10/08 02:56:14;;;;;;;2.42;1.30;;;9.40;93.10;;;;;;5031033;28;20045;-79
2021/10/08 02:58:40;;;;;;;2.00;1.13;;;9.50;93.10;;;;;;5016166;28;20034;-79
2021/10/08 03:01:06;;;;;;;1.88;1.10;;;9.30;93.10;;;;;;5016671;28;20041;-79
2021/10/08 03:03:32;;;;;;;1.45;0.85;;;9.40;93.10;;;;;;5034122;28;20042;-80
2021/10/08 03:05:58;;;;;;;1.83;1.10;;;9.40;93.10;;;;;;5032871;28;20103;-79
2021/10/08 03:08:23;;;;;;;2.03;1.30;;;9.40;93.10;;;;;;5034056;28;20046;-80
2021/10/08 03:10:49;;;;;;;2.45;1.50;;;9.40;93.10;;;;;;5032796;28;20033;-79
2021/10/08 03:13:15;;;;;;;2.70;1.58;;;9.40;93.10;;;;;;5014644;28;20578;-80
2021/10/08 03:15:40;;;;;;;2.53;1.33;;;9.30;93.10;;;;;;5015740;28;20076;-79
2021/10/08 03:18:06;;;;;;;2.03;1.10;;;9.40;93.10;;;;;;5032812;28;20403;-79
2021/10/08 03:20:32;;;;;;;1.85;1.20;;;9.30;93.10;;;;;;5032823;28;20136;-79
2021/10/08 03:22:58;;;;;;;2.00;1.08;;;9.20;93.10;;;;;;5015982;28;20042;-79
2021/10/08 03:25:24;;;;;;;2.20;1.25;;;9.30;93.10;;;;;;5015276;28;20041;-79
2021/10/08 03:27:50;;;;;;;1.27;0.90;;;9.30;93.10;;;;;;5033999;28;20133;-79
2021/10/08 03:30:15;;;;;;;2.53;1.10;;;9.30;93.10;;;;;;5032727;28;20043;-79
2021/10/08 03:32:43;;;;;;;2.85;1.38;;;9.30;93.20;;;;;;5032698;28;20577;-79
2021/10/08 03:35:10;;;;;;;1.10;1.00;;;9.20;93.10;;;;;;5016263;28;20127;-79
2021/10/08 03:40:22;;;;;;;2.13;1.00;;;9.20;93.10;;;;;;5033340;28;20080;-79
2021/10/08 03:42:48;;;;;;;2.22;1.30;;;9.20;93.10;;;;;;5016008;28;20041;-79
2021/10/08 03:45:15;;;;;;;3.10;1.15;;;9.20;93.20;;;;;;5032485;28;20388;-79
2021/10/08 03:50:26;;;;;;;1.98;1.30;;;9.10;93.20;;;;;;5018432;28;20049;-79
2021/10/08 03:52:52;;;;;;;2.78;1.17;;;9.10;93.20;;;;;;5014179;28;20399;-79
2021/10/08 03:55:17;;;;;;;1.95;1.00;;;9.10;93.20;;;;;;5015562;28;20037;-79
2021/10/08 03:57:43;;;;;;;2.03;1.13;;;9.20;93.20;;;;;;5033385;28;20107;-79
2021/10/08 04:00:10;;;;;;;2.65;1.40;;;9.10;93.10;;;;;;5030587;28;20046;-79
2021/10/08 04:02:35;;;;;;;1.90;1.13;;;9.10;93.10;;;;;;5014805;28;20095;-79
2021/10/08 04:05:01;;;;;;;1.95;1.27;;;9.10;93.20;;;;;;5015562;28;20064;-79
2021/10/08 04:07:27;;;;;;;1.65;1.00;;;9.10;93.20;;;;;;5029246;28;20050;-79
2021/10/08 04:09:52;;;;;;;2.05;1.05;;;9.20;93.20;;;;;;5015714;28;20050;-79
2021/10/08 04:12:18;;;;;;;1.55;0.80;;;9.20;93.40;;;;;;5015055;28;20041;-79
2021/10/08 04:14:44;;;;;;;1.75;1.10;;;9.10;93.10;;;;;;5015507;28;20143;-79
2021/10/08 04:17:09;;;;;;;2.10;1.10;;;9.10;93.10;;;;;;5013674;28;20064;-79
2021/10/08 04:19:35;;;;;;;2.70;1.45;;;9.20;93.10;;;;;;5031639;28;20122;-79
2021/10/08 04:22:01;;;;;;;2.08;1.10;;;9.00;93.10;;;;;;5015295;28;20080;-79
2021/10/08 04:24:26;;;;;;;1.17;0.90;;;9.00;93.10;;;;;;5030947;28;20527;-79
2021/10/08 04:26:52;;;;;;;2.35;1.20;;;9.00;93.10;;;;;;5031792;28;20395;-79
2021/10/08 04:29:18;;;;;;;1.27;0.90;;;8.90;93.10;;;;;;5031969;28;20453;-79
2021/10/08 04:31:44;;;;;;;1.48;0.80;;;9.00;93.20;;;;;;5031860;28;20515;-79
2021/10/08 04:34:09;;;;;;;1.48;1.00;;;9.00;93.10;;;;;;5013345;28;20030;-79
2021/10/08 04:36:36;;;;;;;1.15;0.80;;;9.00;93.20;;;;;;5032242;28;20074;-79
2021/10/08 04:39:02;;;;;;;1.38;0.95;;;9.00;93.20;;;;;;5031517;28;20087;-79
2021/10/08 04:41:28;;;;;;;1.50;0.93;;;9.00;93.10;;;;;;5015115;28;20045;-79
2021/10/08 04:43:53;;;;;;;1.58;0.90;;;9.00;93.10;;;;;;5031547;28;20065;-79
2021/10/08 04:46:19;;;;;;;1.42;0.95;;;9.00;93.20;;;;;;5031430;28;20068;-79
2021/10/08 04:48:45;;;;;;;1.85;0.90;;;8.90;93.10;;;;;;5031747;28;20574;-79
2021/10/08 04:51:11;;;;;;;2.38;1.40;;;9.00;93.10;;;;;;5032675;28;20515;-79
2021/10/08 04:53:37;;;;;;;2.42;1.10;;;9.00;93.10;;;;;;5015114;28;20044;-79
2021/10/08 04:56:03;;;;;;;2.22;1.00;;;9.00;93.00;;;;;;5014927;28;20033;-79
2021/10/08 04:58:29;;;;;;;1.58;0.85;;;9.00;93.10;;;;;;5031370;28;20077;-79
2021/10/08 05:00:54;;;;;;;1.55;1.00;;;9.00;93.10;;;;;;5031887;28;20122;-79
2021/10/08 05:03:20;;;;;;;1.55;0.98;;;8.90;93.10;;;;;;5014851;28;20049;-79
2021/10/08 05:05:50;;;;;;;1.80;1.20;;;8.90;93.00;;;;;;5031040;28;20041;-79
2021/10/08 05:08:17;;;;;;;1.48;0.95;;;8.90;93.10;;;;;;5032452;28;20042;-79
2021/10/08 05:10:43;;;;;;;1.73;1.20;;;9.00;93.10;;;;;;5029270;28;20499;-79
2021/10/08 05:13:09;;;;;;;1.30;0.93;;;8.80;93.00;;;;;;5014548;28;20091;-79
2021/10/08 05:15:34;;;;;;;2.58;1.38;;;8.90;93.10;;;;;;5014661;28;20046;-79
2021/10/08 05:18:00;;;;;;;1.17;0.80;;;8.90;93.10;;;;;;5031145;28;20056;-79
2021/10/08 05:20:26;;;;;;;1.30;0.90;;;8.80;93.10;;;;;;5031102;28;20068;-79
2021/10/08 05:22:52;;;;;;;1.33;0.93;;;8.90;93.10;;;;;;5014532;28;20045;-79
2021/10/08 05:25:18;;;;;;;1.45;0.82;;;8.80;93.10;;;;;;5014621;28;20487;-79
2021/10/08 05:27:44;;;;;;;2.45;1.35;;;8.80;93.10;;;;;;5029342;28;20081;-79
2021/10/08 05:30:11;;;;;;;1.75;1.15;;;8.80;93.10;;;;;;5013973;28;20472;-79
2021/10/08 05:32:37;;;;;;;1.42;1.10;;;8.80;93.10;;;;;;5014385;28;20068;-79
2021/10/08 05:35:03;;;;;;;1.35;0.90;;;8.80;93.10;;;;;;5014476;28;20072;-79
2021/10/08 05:37:28;;;;;;;2.17;1.10;;;8.80;93.10;;;;;;5030870;28;20041;-79
2021/10/08 05:39:54;;;;;;;1.17;0.80;;;8.70;93.10;;;;;;5014132;28;20439;-79
2021/10/08 05:42:19;;;;;;;1.52;1.00;;;8.70;93.10;;;;;;5029462;28;20056;-79
2021/10/08 05:44:45;;;;;;;0.70;0.70;;;8.70;93.10;;;;;;4997957;28;20395;-79
2021/10/08 05:47:11;;;;;;;1.10;0.90;;;8.70;93.10;;;;;;5013701;28;20081;-79
2021/10/08 05:49:37;;;;;;;1.55;1.10;;;8.70;93.10;;;;;;5031874;28;20045;-79
2021/10/08 05:52:22;;;;;;;1.70;1.00;;;8.70;93.10;;;;;;5012508;28;20037;-79
2021/10/08 05:54:48;;;;;;;1.45;0.90;;;8.80;93.10;;;;;;5012885;28;20041;-79
2021/10/08 05:57:14;;;;;;;2.13;1.30;;;8.70;93.10;;;;;;5013940;28;20446;-79
2021/10/08 05:59:41;;;;;;;1.77;1.08;;;8.70;93.10;;;;;;5029704;28;20057;-79
2021/10/08 06:02:07;;;;;;;1.08;0.73;;;8.70;93.10;;;;;;5030775;28;20041;-79
2021/10/08 06:04:33;;;;;;;1.52;0.88;;;8.70;93.10;;;;;;5030501;28;20488;-79
2021/10/08 06:06:58;;;;;;;1.20;0.95;;;8.70;93.10;;;;;;5030979;28;20045;-78
2021/10/08 06:09:24;;;;;;;1.95;1.10;;;8.70;93.10;;;;;;5043908;28;20052;-77
2021/10/08 06:11:50;;;;;;;1.92;1.00;;;8.70;93.10;;;;;;5017982;28;20088;-78
2021/10/08 06:14:15;;;;;;;1.33;0.90;;;8.70;93.10;;;;;;5013618;28;20487;-78
2021/10/08 06:16:41;;;;;;;1.50;0.95;;;8.60;93.10;;;;;;5012815;28;20046;-78
2021/10/08 06:19:07;;;;;;;1.30;0.90;;;8.60;93.10;;;;;;5012003;28;20451;-78
2021/10/08 06:21:33;;;;;;;0.77;0.63;;;8.60;93.10;;;;;;5039215;28;20447;-77
2021/10/08 06:23:58;;;;;;;1.15;0.85;;;8.60;93.10;;;;;;5017997;28;20045;-78
2021/10/08 06:26:24;;;;;;;1.02;0.80;;;8.60;93.10;;;;;;5015856;28;20038;-78
2021/10/08 06:28:50;;;;;;;1.27;0.80;;;8.70;93.10;;;;;;5017094;28;20042;-78
2021/10/08 06:31:15;;;;;;;1.67;0.90;;;8.60;93.00;;;;;;5017580;28;20500;-78
2021/10/08 06:33:41;;;;;;;2.75;1.13;;;8.60;93.00;;;;;;5035769;28;20042;-78
2021/10/08 06:36:07;;;;;;;4.32;1.33;;;8.60;93.10;;;;;;5018144;28;20088;-78
2021/10/08 06:38:32;;;;;;;1.73;0.75;;;8.60;93.10;;;;;;5034358;28;20103;-77
2021/10/08 06:40:58;;;;;;;2.05;1.20;;;8.60;93.10;;;;;;5016788;28;20106;-77
2021/10/08 06:43:24;;;;;;;1.65;1.02;;;8.50;93.10;;;;;;5034908;28;20144;-78
2021/10/08 06:45:50;;;;;;;1.70;1.05;;;8.60;93.10;;;;;;5016853;28;20561;-78
2021/10/08 06:48:15;;;;;;;1.02;0.70;;;8.60;93.10;;;;;;5017258;28;20120;-79
2021/10/08 06:50:41;;;;;;;2.08;1.17;;;8.60;93.10;;;;;;5032509;28;20048;-79
2021/10/08 06:53:09;;;;;;;1.05;0.75;;;8.60;93.10;;;;;;5016889;28;20046;-79
2021/10/08 06:55:36;;;;;;;1.67;0.98;;;8.70;93.10;;;;;;5034892;28;20038;-79
2021/10/08 06:58:02;;;;;;;1.33;0.90;;;8.70;93.00;;;;;;4974109;28;20043;-79
2021/10/08 07:00:28;;;;;;;1.58;0.93;;;8.60;93.00;;;;;;4957252;28;20054;-79
2021/10/08 07:02:55;;;;;;;2.42;1.40;;;8.70;93.00;;;;;;4957344;28;20129;-79
2021/10/08 07:05:23;;;;;;;1.77;1.08;;;8.70;92.90;;;;;;4956974;28;20046;-79
2021/10/08 07:07:50;;;;;;;1.40;1.00;;;8.80;93.00;;;;;;4956687;28;20039;-79
2021/10/08 07:10:16;;;;;;;1.20;0.80;;;8.70;92.90;;;;;;4957087;28;20055;-79
2021/10/08 07:12:42;;;;;;;1.08;0.85;;;8.80;93.00;;;;;;4957078;28;20583;-79
2021/10/08 07:15:16;;;;;;;1.42;1.00;;;8.80;93.00;;;;;;4989100;28;20154;-79
2021/10/08 07:17:47;;;;;;;1.52;1.05;;;8.80;93.00;;;;;;4956931;28;20177;-79
2021/10/08 07:20:17;;;;;;;1.48;1.00;;;8.70;92.90;;;;;;4956829;28;20050;-79
2021/10/08 07:22:43;;;;;;;3.55;1.10;;;8.80;92.90;;;;;;4957125;28;20133;-79
2021/10/08 07:25:10;;;;;;;1.65;1.13;;;8.90;92.90;;;;;;4956714;28;20088;-79
2021/10/08 07:27:38;;;;;;;1.95;0.93;;;8.90;92.90;;;;;;4956496;28;20521;-79
2021/10/08 07:30:05;;;;;;;1.33;0.80;;;8.90;92.90;;;;;;4996657;28;20038;-79
2021/10/08 07:32:31;;;;;;;1.45;0.90;;;8.90;92.90;;;;;;5036830;28;20046;-79
2021/10/08 07:34:57;;;;;;;2.08;1.20;;;9.10;92.90;;;;;;5041457;28;20098;-79
2021/10/08 07:37:23;;;;;;;1.60;1.10;;;9.10;92.80;;;;;;5030792;28;20061;-80
2021/10/08 07:39:49;;;;;;;1.92;1.20;;;9.10;92.80;;;;;;5049558;28;20583;-80
2021/10/08 07:42:15;;;;;;;2.05;1.15;;;9.10;92.80;;;;;;5026520;28;20045;-79
2021/10/08 07:44:41;;;;;;;2.40;1.30;;;9.20;92.80;;;;;;5026895;28;20048;-80
2021/10/08 07:47:07;;;;;;;1.38;1.00;;;9.30;92.80;;;;;;5025304;28;20046;-80
2021/10/08 07:49:33;;;;;;;1.90;1.05;;;9.30;92.70;;;;;;5039371;28;20480;-80
2021/10/08 07:51:59;;;;;;;2.08;1.10;;;9.30;92.70;;;;;;5023541;28;20124;-79
2021/10/08 07:59:03;;;;;;;1.00;0.68;;;9.40;92.70;;;;;;5011856;28;20056;-80
2021/10/08 08:01:29;;;;;;;1.92;1.23;;;9.50;92.70;;;;;;5018990;28;20029;-80
2021/10/08 08:03:57;;;;;;;2.80;1.45;;;9.40;92.60;;;;;;5000362;28;20049;-79
2021/10/08 08:06:23;;;;;;;1.90;0.95;;;9.60;92.70;;;;;;4959761;28;20038;-78
2021/10/08 08:08:49;;;;;;;1.77;0.93;;;9.60;92.60;;;;;;4991089;28;20105;-78
2021/10/08 08:11:15;;;;;;;1.55;0.93;;;9.70;92.60;;;;;;4990720;28;20030;-79
2021/10/08 08:13:53;;;;;;;2.40;1.52;;;9.70;92.50;;;;;;4990410;28;20098;-79
2021/10/08 08:16:19;;;;;;;1.92;1.20;;;9.80;92.40;;;;;;4991459;28;20031;-79
2021/10/08 08:18:45;;;;;;;1.80;1.20;;;9.90;92.50;;;;;;4976084;28;20093;-79
2021/10/08 08:21:11;;;;;;;1.83;1.05;;;9.90;92.50;;;;;;4992106;28;20126;-79
2021/10/08 08:23:36;;;;;;;1.30;0.95;;;10.00;92.40;;;;;;4992123;28;20038;-80
2021/10/08 08:26:03;;;;;;;1.88;1.05;;;10.00;92.50;;;;;;4959431;28;20041;-79
2021/10/08 08:28:29;;;;;;;2.00;1.20;;;9.90;92.40;;;;;;4991720;28;20093;-79
2021/10/08 08:30:55;;;;;;;1.58;1.00;;;10.10;92.50;;;;;;4953471;28;20042;-79
2021/10/08 08:33:22;;;;;;;2.95;1.15;;;10.00;92.50;;;;;;4989313;28;20038;-80
2021/10/08 08:35:48;;;;;;;2.33;1.25;;;10.00;92.50;;;;;;4992178;28;20410;-80
2021/10/08 08:38:14;;;;;;;2.97;1.60;;;10.10;92.50;;;;;;4994768;28;20046;-79
2021/10/08 08:40:40;;;;;;;2.45;1.38;;;10.10;92.50;;;;;;5010998;28;20054;-79
2021/10/08 08:43:06;;;;;;;2.75;1.58;;;10.10;92.50;;;;;;5011657;28;20091;-79
2021/10/08 08:45:32;;;;;;;2.35;1.52;;;10.20;92.50;;;;;;5012563;28;20045;-79
2021/10/08 08:48:04;;;;;;;3.05;1.77;;;10.20;92.50;;;;;;5015966;28;20400;-80
2021/10/08 08:50:32;;;;;;;3.70;1.98;;;10.20;92.40;;;;;;5034169;28;20038;-80
2021/10/08 08:52:58;;;;;;;3.65;1.67;;;10.30;92.40;;;;;;5033186;28;20045;-80
2021/10/08 08:55:24;;;;;;;3.63;1.77;;;10.40;92.50;;;;;;5017006;28;20040;-80
2021/10/08 08:57:50;;;;;;;2.38;1.30;;;10.40;92.50;;;;;;5031078;28;20041;-79
2021/10/08 09:00:38;;;;;;;2.80;1.60;;;10.40;92.40;;;;;;5014669;28;20045;-81
2021/10/08 09:09:38;;;;;;;3.60;1.67;;;10.60;92.30;;;;;;5071183;23;20366;-81
2021/10/08 09:12:06;;;;;;;3.75;1.67;;;10.70;92.30;;;;;;4813228;29;20053;-80
2021/10/08 09:14:32;;;;;;;3.28;1.83;;;10.80;92.30;;;;;;4788956;29;20039;-80
2021/10/08 09:17:09;;;;;;;3.63;1.80;;;10.80;92.20;;;;;;4771201;29;20111;-80
2021/10/08 09:20:00;;;;;;;4.05;2.10;;;10.80;92.20;;;;;;4787763;29;20528;-78
2021/10/08 09:23:02;;;;;;;3.58;1.50;;;10.90;92.20;;;;;;4773227;29;20150;-81
2021/10/08 09:32:08;;;;;;;2.63;1.55;;;10.90;92.20;;;;;;4721797;30;20072;-81
2021/10/08 09:34:34;;;;;;;4.35;1.60;;;11.00;92.20;;;;;;4720956;30;20041;-81
2021/10/08 09:37:12;;;;;;;3.65;1.90;;;11.00;92.20;;;;;;4720772;30;20056;-85
2021/10/08 09:39:51;;;;;;;4.80;2.20;;;11.10;92.30;;;;;;4725727;30;20053;-84
2021/10/08 09:46:30;;;;;;;5.68;2.50;;;11.10;92.30;;;;;;4632969;30;20054;-82
2021/10/08 09:49:41;;;;;;;3.47;1.85;;;11.20;92.30;;;;;;4609426;31;20063;-84
2021/10/08 09:53:18;;;;;;;4.18;2.17;;;11.20;92.20;;;;;;4594212;31;20590;-81
2021/10/08 09:55:55;;;;;;;3.95;2.03;;;11.40;92.20;;;;;;4564717;31;20512;-83
2021/10/08 09:58:21;;;;;;;5.07;2.17;;;11.30;92.10;;;;;;4604831;31;20154;-83
2021/10/08 10:01:06;;;;;;;4.55;2.17;;;11.40;92.10;;;;;;4630302;31;20410;-82
2021/10/08 10:03:37;;;;;;;5.15;2.20;;;11.40;92.10;;;;;;4604740;31;20576;-83
2021/10/08 10:06:04;;;;;;;6.20;3.13;;;11.30;92.10;;;;;;4578399;31;20050;-82
2021/10/08 10:08:31;;;;;;;5.40;2.50;;;11.50;92.10;;;;;;4579400;31;20145;-83
2021/10/08 10:10:58;;;;;;;6.45;2.78;;;11.50;92.10;;;;;;4586562;31;20401;-83
2021/10/08 10:13:24;;;;;;;4.72;2.35;;;11.60;92.10;;;;;;4603676;31;20056;-83
2021/10/08 10:18:38;;;;;;;4.20;2.05;;;11.70;92.00;;;;;;4689372;30;20076;-76
2021/10/08 10:21:07;;;;;;;4.78;2.30;;;11.80;92.00;;;;;;4716653;30;20068;-81
2021/10/08 10:23:34;;;;;;;5.88;2.85;;;11.80;92.00;;;;;;4701657;30;20060;-81
2021/10/08 10:26:00;;;;;;;4.88;2.33;;;11.90;92.00;;;;;;4731693;30;20135;-81
2021/10/08 10:28:26;;;;;;;4.40;2.47;;;12.00;92.10;;;;;;4750359;30;20519;-81
2021/10/08 10:30:55;;;;;;;4.80;2.20;;;12.00;92.00;;;;;;4735929;30;20052;-81
2021/10/08 10:33:35;;;;;;;5.30;2.50;;;12.00;91.90;;;;;;4750532;30;20051;-81
2021/10/08 10:36:06;;;;;;;4.97;2.50;;;12.10;91.90;;;;;;4740105;30;20102;-82
2021/10/08 10:38:38;;;;;;;4.80;2.35;;;12.10;91.90;;;;;;4758959;30;20105;-81
2021/10/08 10:41:24;;;;;;;6.00;2.92;;;12.20;91.90;;;;;;4761015;30;20052;-80
2021/10/08 10:43:54;;;;;;;4.90;2.33;;;12.30;91.90;;;;;;4785432;30;20051;-81
2021/10/08 10:46:29;;;;;;;4.85;2.17;;;12.40;91.90;;;;;;4771803;30;20055;-82
2021/10/08 10:49:40;;;;;;;4.28;2.20;;;12.40;91.80;;;;;;4770951;30;20105;-80
2021/10/08 10:52:11;;;;;;;4.93;2.30;;;12.50;91.70;;;;;;4772621;30;20086;-78
2021/10/08 10:54:54;;;;;;;5.05;2.50;;;12.60;91.70;;;;;;4779255;29;20047;-80
2021/10/08 10:57:46;;;;;;;5.70;2.85;;;12.70;91.70;;;;;;4833641;29;20121;-77
2021/10/08 11:00:30;;;;;;;4.43;2.22;;;12.80;91.60;;;;;;4794528;29;20091;-77
2021/10/08 11:03:03;;;;;;;4.57;2.60;;;12.80;91.50;;;;;;4829260;29;20484;-77
2021/10/08 11:05:30;;;;;;;6.40;3.25;;;12.90;91.50;;;;;;4801313;29;20528;-80
2021/10/08 11:08:15;;;;;;;4.80;2.55;;;13.00;91.50;;;;;;4797748;29;20045;-78
2021/10/08 11:11:06;;;;;;;5.60;2.35;;;13.00;91.50;;;;;;4775876;29;20145;-77
2021/10/08 11:13:34;;;;;;;5.47;2.60;;;13.00;91.40;;;;;;4785114;29;20039;-78
2021/10/08 11:16:09;;;;;;;4.88;2.53;;;13.20;91.50;;;;;;4802063;29;20806;-77
2021/10/08 11:18:48;;;;;;;4.35;2.25;;;13.20;91.40;;;;;;4795058;29;20092;-77
2021/10/08 11:21:50;;;;;;;4.78;2.50;;;13.30;91.40;;;;;;4789779;29;20118;-76
2021/10/08 11:24:20;;;;;;;;;;;13.30;91.40;;;;;;4815286;29;20046;-77
2021/10/08 11:26:52;;;;;;;3.90;2.00;;;13.30;91.30;;;;;;4831646;29;19916;-75
2021/10/08 11:29:18;;;;;;;4.25;2.00;;;13.40;91.30;;;;;;4825095;29;20038;-76
2021/10/08 11:31:43;;;;;;;4.80;2.42;;;13.40;91.30;;;;;;4816698;29;20166;-76
2021/10/08 11:34:13;;;;;;;4.72;2.63;;;13.40;91.30;;;;;;4817817;29;20054;-75
2021/10/08 11:36:39;;;;;;;4.88;2.50;;;13.50;91.30;;;;;;4838845;29;20047;-77
2021/10/08 11:39:11;;;;;;;5.13;2.63;;;13.60;91.20;;;;;;4836422;29;20058;-78
2021/10/08 11:41:38;;;;;;;5.13;2.45;;;13.70;91.10;;;;;;4812565;29;20121;-77
2021/10/08 11:44:12;;;;;;;3.53;2.00;;;13.90;91.10;;;;;;4811094;29;20056;-78
2021/10/08 11:46:54;;;;;;;3.80;2.10;;;13.90;90.90;;;;;;4827979;29;20125;-76
2021/10/08 11:49:45;;;;;;;3.50;2.13;;;13.90;90.90;;;;;;4813166;29;20034;-78
2021/10/08 11:52:07;;;;;;;2.83;1.50;;;14.00;90.80;;;;;;4816675;29;20504;-78
2021/10/08 11:54:32;;;;;;;3.63;2.00;;;14.10;90.70;;;;;;4826228;29;20446;-75
2021/10/08 11:57:00;;;;;;;4.07;2.35;;;14.20;90.70;;;;;;4811677;29;20042;-76
2021/10/08 11:59:26;;;;;;;4.18;1.95;;;14.20;90.60;;;;;;4810994;29;20102;-77
2021/10/08 12:02:12;;;;;;;2.83;1.80;;;14.30;90.60;;;;;;4795899;29;20069;-76
2021/10/08 12:04:54;;;;;;;3.67;2.10;;;14.40;90.50;;;;;;4824793;29;20042;-77
2021/10/08 12:07:20;;;;;;;2.78;1.65;;;14.50;90.40;;;;;;4797453;29;20050;-77
2021/10/08 12:09:46;;;;;;;2.75;1.63;;;14.70;90.30;;;;;;4795597;29;20862;-78
2021/10/08 12:12:14;;;;;;;2.53;1.60;;;14.70;90.20;;;;;;4802029;29;20034;-77
2021/10/08 12:14:48;;;;;;;3.47;1.60;;;14.70;90.10;;;;;;4832780;29;20045;-76
2021/10/08 12:17:18;;;;;;;2.30;1.50;;;14.80;90.00;;;;;;4826649;29;20045;-77
2021/10/08 12:19:44;;;;;;;2.58;1.30;;;14.90;90.00;;;;;;4852830;29;20050;-77
2021/10/08 12:22:22;;;;;;;3.17;1.10;;;14.90;90.00;;;;;;4812316;29;20046;-79
2021/10/08 12:25:02;;;;;;;1.40;1.00;;;15.20;89.90;;;;;;4825018;29;20061;-77
2021/10/08 12:27:28;;;;;;;1.25;0.90;;;15.10;89.70;;;;;;4844409;29;20072;-76
2021/10/08 12:29:54;;;;;;;1.58;0.77;;;15.20;89.50;;;;;;4839263;29;20559;-79
2021/10/08 12:32:19;;;;;;;1.05;0.73;;;15.20;89.40;;;;;;4825775;29;20046;-81
2021/10/08 12:34:48;;;;;;;1.30;0.70;;;15.30;89.20;;;;;;4828404;29;20045;-80
2021/10/08 12:37:18;;;;;;;1.25;0.70;;;15.30;89.20;;;;;;4824328;29;20511;-79
2021/10/08 12:40:03;;;;;;;1.08;0.52;;;15.40;89.10;;;;;;4827384;29;20046;-79
2021/10/08 12:42:35;;;;;;;0.70;0.60;;;15.40;89.10;;;;;;4824186;29;20030;-78
2021/10/08 12:45:02;;;;;;;1.05;0.60;;;15.40;89.00;;;;;;4824478;29;20042;-79
2021/10/08 12:47:43;;;;;;;0.63;0.50;;;15.50;88.90;;;;;;4810666;29;20054;-77
2021/10/08 12:50:17;;;;;;;0.50;0.43;;;15.60;88.70;;;;;;4825523;29;20399;-78
2021/10/08 12:52:47;;;;;;;0.50;0.50;;;15.60;88.60;;;;;;4811581;29;20131;-79
2021/10/08 12:55:19;;;;;;;0.80;0.70;;;15.50;88.60;;;;;;4844158;29;20179;-77
2021/10/08 12:58:23;;;;;;;0.85;0.60;;;15.60;88.50;;;;;;4795648;29;20042;-76
2021/10/08 13:01:01;;;;;;;0.60;0.45;;;15.70;88.30;;;;;;4844177;29;20056;-78
2021/10/08 13:03:37;;;;;;;0.43;0.40;;;15.80;88.10;;;;;;4824973;29;20038;-85
2021/10/08 13:06:07;;;;;;;0.50;0.50;;;15.70;88.00;;;;;;4810164;29;20049;-81
2021/10/08 13:08:35;;;;;;;0.82;0.60;;;15.70;88.00;;;;;;4795351;29;20049;-79
2021/10/08 13:11:04;;;;;;;1.10;0.80;;;15.80;88.00;;;;;;4795657;29;20041;-84
2021/10/08 13:13:34;;;;;;;0.68;0.60;;;15.80;88.00;;;;;;4826557;29;20046;-84
2021/10/08 13:16:01;;;;;;;0.90;0.73;;;15.80;87.80;;;;;;4813808;29;20118;-78
2021/10/08 13:18:59;;;;;;;1.48;1.10;;;15.80;87.70;;;;;;4815801;29;20066;-78
2021/10/08 13:21:27;;;;;;;1.98;1.25;;;15.80;87.80;;;;;;4811447;29;20075;-75
2021/10/08 13:23:55;;;;;;;1.25;1.10;;;15.90;87.80;;;;;;4824985;29;20103;-76
2021/10/08 13:26:21;;;;;;;2.17;1.25;;;15.80;87.50;;;;;;4823159;29;20049;-76
2021/10/08 13:28:49;;;;;;;1.77;1.10;;;15.90;87.50;;;;;;4824707;29;20056;-76
2021/10/08 13:31:15;;;;;;;1.60;1.30;;;16.00;87.50;;;;;;4824742;29;20922;-76